Time;durP1;ratioP1;P1;durP2;ratioP2;P2;SDS_P1;SDS_P2;PMS_P1;PMS_P2;Temp;Humidity;BMP_temperature;BMP_pressure;BME280_temperature;BME280_humidity;BME280_pressure;Samples;Min_cycle;Max_cycle;Signal;HPM_P1;HPM_P2
2022/08/29 00:02:27;;;;;;;7.13;3.78;;;;;;;15.32;73.32;101387.88;4956677;29;20078;-80
2022/08/29 00:04:53;;;;;;;6.32;3.45;;;;;;;15.28;73.51;101384.75;4947055;29;20082;-80
2022/08/29 00:07:21;;;;;;;7.10;3.58;;;;;;;15.20;73.62;101376.84;4956453;29;20047;-81
2022/08/29 00:09:48;;;;;;;6.90;3.33;;;;;;;15.25;73.53;101384.25;4942896;29;20432;-79
2022/08/29 00:12:14;;;;;;;7.85;3.50;;;;;;;15.20;73.57;101378.66;4942871;29;20437;-82
2022/08/29 00:14:41;;;;;;;10.05;4.53;;;;;;;15.18;74.02;101380.63;4959258;29;20086;-83
2022/08/29 00:17:08;;;;;;;6.80;3.70;;;;;;;15.15;74.01;101386.25;4946669;29;20110;-78
2022/08/29 00:19:34;;;;;;;7.15;3.45;;;;;;;15.06;74.34;101382.81;4944839;29;20100;-79
2022/08/29 00:22:01;;;;;;;5.78;3.40;;;;;;;14.93;74.70;101388.59;4945183;29;20070;-80
2022/08/29 00:24:30;;;;;;;6.55;3.78;;;;;;;14.93;75.22;101387.78;4944898;29;20567;-81
2022/08/29 00:26:59;;;;;;;5.45;4.00;;;;;;;14.85;75.24;101385.97;4948265;29;20059;-81
2022/08/29 00:29:25;;;;;;;9.40;4.22;;;;;;;14.80;75.44;101379.53;4947674;29;20110;-82
2022/08/29 00:31:54;;;;;;;6.80;3.85;;;;;;;14.72;75.56;101383.00;4954933;29;20106;-82
2022/08/29 00:34:20;;;;;;;7.80;3.80;;;;;;;14.68;75.79;101384.31;4954432;28;20424;-82
2022/08/29 00:36:50;;;;;;;5.90;3.22;;;;;;;14.66;75.92;101385.44;4955961;29;20142;-82
2022/08/29 00:39:17;;;;;;;6.85;3.47;;;;;;;14.59;76.04;101385.31;4947314;29;20115;-82
2022/08/29 00:41:46;;;;;;;8.73;3.90;;;;;;;14.56;75.58;101383.00;4948320;29;20055;-82
2022/08/29 00:44:22;;;;;;;7.22;3.95;;;;;;;14.39;76.14;101376.03;4949609;29;20099;-81
2022/08/29 00:46:55;;;;;;;11.30;3.65;;;;;;;14.29;76.79;101374.38;4949320;29;20075;-80
2022/08/29 00:49:30;;;;;;;7.50;3.60;;;;;;;14.19;76.87;101363.16;4948063;29;20051;-78
2022/08/29 00:52:00;;;;;;;7.78;3.58;;;;;;;14.17;77.00;101359.88;4944033;29;20084;-80
2022/08/29 00:54:27;;;;;;;9.43;3.78;;;;;;;14.27;77.09;101380.78;4945648;29;20056;-81
2022/08/29 00:56:57;;;;;;;5.13;3.40;;;;;;;14.23;77.44;101375.00;4960440;28;20531;-82
2022/08/29 00:59:31;;;;;;;7.63;3.65;;;;;;;14.23;77.50;101380.28;4953174;29;20155;-83
2022/08/29 01:01:58;;;;;;;8.60;3.72;;;;;;;14.19;77.54;101365.78;4966756;29;20055;-82
2022/08/29 01:04:31;;;;;;;6.25;3.70;;;;;;;14.12;77.79;101364.00;4958736;28;20047;-82
2022/08/29 01:07:13;;;;;;;10.55;3.53;;;;;;;13.99;78.00;101366.25;4949962;29;20059;-82
2022/08/29 01:09:53;;;;;;;5.75;3.58;;;;;;;14.02;78.27;101398.34;4951655;29;20130;-82
2022/08/29 01:12:48;;;;;;;;;;;;;;;;;;;;;
2022/08/29 01:15:20;;;;;;;8.73;3.92;;;;;;;13.83;78.69;101409.09;4919453;29;20139;-82
2022/08/29 01:17:47;;;;;;;8.65;3.80;;;;;;;13.84;78.71;101416.00;4949128;29;20083;-81
2022/08/29 01:20:23;;;;;;;7.22;3.60;;;;;;;13.72;79.13;101417.28;4952318;29;20048;-80
2022/08/29 01:23:18;;;;;;;6.32;3.60;;;;;;;13.52;79.61;101407.00;4951581;29;20060;-81
2022/08/29 01:25:51;;;;;;;6.10;3.85;;;;;;;13.58;79.90;101421.34;4951569;29;20142;-82
2022/08/29 01:28:39;;;;;;;7.95;3.90;;;;;;;13.45;80.09;101395.44;4946044;29;20111;-79
2022/08/29 01:31:14;;;;;;;6.32;3.47;;;;;;;13.53;80.09;101413.91;4955411;29;20047;-80
2022/08/29 01:33:44;;;;;;;5.72;3.88;;;;;;;13.38;80.34;101399.69;4953273;29;20119;-82
2022/08/29 01:36:19;;;;;;;5.18;3.70;;;;;;;13.34;80.38;101394.88;4962327;29;20118;-82
2022/08/29 01:38:49;;;;;;;6.47;3.70;;;;;;;13.36;80.29;101399.00;4971033;29;20074;-81
2022/08/29 01:41:21;;;;;;;7.38;3.67;;;;;;;13.44;80.47;101419.25;4970799;28;20061;-82
2022/08/29 01:43:51;;;;;;;8.23;3.92;;;;;;;13.46;80.49;101427.81;4959459;29;20063;-81
2022/08/29 01:48:46;;;;;;;9.48;4.05;;;;;;;13.40;80.81;101429.28;4958944;28;20055;-75
2022/08/29 01:51:14;;;;;;;7.75;3.60;;;;;;;13.41;80.81;101436.19;4964767;28;20472;-75
2022/08/29 01:53:42;;;;;;;9.25;4.07;;;;;;;13.31;80.88;101432.81;4951647;29;20642;-76
2022/08/29 01:56:10;;;;;;;6.00;3.67;;;;;;;13.27;80.99;101426.22;4938291;29;20056;-77
2022/08/29 01:58:39;;;;;;;9.10;3.80;;;;;;;13.31;80.99;101430.19;4919948;29;20079;-77
2022/08/29 02:01:06;;;;;;;7.75;3.75;;;;;;;13.34;81.00;101426.44;4931572;29;20840;-77
2022/08/29 02:03:33;;;;;;;6.30;3.72;;;;;;;13.29;81.40;101427.72;4920563;29;20056;-76
2022/08/29 02:06:00;;;;;;;6.82;3.75;;;;;;;13.26;81.63;101420.13;4917240;29;20142;-78
2022/08/29 02:08:27;;;;;;;6.68;3.67;;;;;;;13.34;81.27;101429.88;4926921;29;20148;-79
2022/08/29 02:10:54;;;;;;;10.75;3.95;;;;;;;13.28;81.27;101417.34;4922520;29;20079;-76
2022/08/29 02:13:21;;;;;;;6.28;3.83;;;;;;;13.28;81.41;101425.25;4919082;29;20139;-77
2022/08/29 02:15:49;;;;;;;5.60;3.42;;;;;;;13.22;81.69;101420.63;4922038;29;20044;-77
2022/08/29 02:18:16;;;;;;;8.77;3.85;;;;;;;13.21;81.64;101414.53;4936113;29;20051;-77
2022/08/29 02:20:43;;;;;;;5.97;3.70;;;;;;;13.16;81.98;101423.88;4917556;29;20469;-78
2022/08/29 02:23:09;;;;;;;9.32;3.47;;;;;;;13.14;82.31;101421.34;4916972;29;20139;-78
2022/08/29 02:25:42;;;;;;;7.60;3.88;;;;;;;13.14;82.44;101420.53;4927893;29;20143;-77
2022/08/29 02:28:10;;;;;;;6.03;3.85;;;;;;;13.12;82.19;101423.31;4928570;29;20051;-77
2022/08/29 02:30:38;;;;;;;9.60;4.18;;;;;;;13.07;82.35;101411.59;4921309;29;20044;-78
2022/08/29 02:33:07;;;;;;;10.07;3.90;;;;;;;13.06;82.46;101409.97;4935785;29;20139;-77
2022/08/29 02:35:34;;;;;;;6.72;3.67;;;;;;;12.99;82.91;101417.63;4927982;29;20131;-77
2022/08/29 02:38:00;;;;;;;7.70;3.95;;;;;;;12.98;82.80;101408.09;4923583;29;20151;-78
2022/08/29 02:40:27;;;;;;;6.68;3.80;;;;;;;13.00;82.81;101407.94;4926432;29;20126;-77
2022/08/29 02:42:55;;;;;;;8.27;4.25;;;;;;;12.99;82.95;101409.75;4936100;29;20090;-76
2022/08/29 02:45:23;;;;;;;8.07;3.90;;;;;;;12.99;82.99;101414.16;4933231;29;20059;-78
2022/08/29 02:47:50;;;;;;;7.85;3.83;;;;;;;13.01;83.08;101413.03;4935417;29;20496;-78
2022/08/29 02:50:18;;;;;;;6.55;3.72;;;;;;;13.04;83.19;101404.03;4921207;29;20087;-78
2022/08/29 02:52:45;;;;;;;7.20;3.80;;;;;;;13.05;83.18;101408.31;4916411;29;20082;-77
2022/08/29 02:55:14;;;;;;;8.55;3.88;;;;;;;13.01;83.03;101406.97;4921978;29;20528;-77
2022/08/29 02:57:41;;;;;;;6.90;3.45;;;;;;;13.06;83.27;101407.34;4935426;29;20476;-77
2022/08/29 03:00:15;;;;;;;7.13;4.10;;;;;;;13.06;83.88;101396.81;4934062;29;20047;-77
2022/08/29 03:02:42;;;;;;;7.10;3.70;;;;;;;13.03;83.82;101397.13;4935300;29;20138;-77
2022/08/29 03:05:09;;;;;;;6.93;4.53;;;;;;;13.02;84.03;101400.72;4927378;29;20052;-77
2022/08/29 03:07:37;;;;;;;9.63;4.00;;;;;;;12.98;84.12;101394.13;4935123;29;20086;-77
2022/08/29 03:10:06;;;;;;;7.72;3.90;;;;;;;12.93;84.55;101382.28;4925768;29;20055;-77
2022/08/29 03:12:32;;;;;;;6.70;4.10;;;;;;;12.95;84.20;101382.94;4935379;29;20055;-78
2022/08/29 03:14:59;;;;;;;5.50;3.90;;;;;;;12.89;84.43;101394.06;4924657;29;20135;-77
2022/08/29 03:17:26;;;;;;;10.20;3.92;;;;;;;12.87;84.59;101388.13;4920731;29;20080;-77
2022/08/29 03:19:53;;;;;;;8.77;3.83;;;;;;;12.88;84.40;101386.34;4916312;29;20135;-77
2022/08/29 03:22:19;;;;;;;8.23;4.22;;;;;;;12.89;84.32;101387.97;4915996;29;20140;-77
2022/08/29 03:24:47;;;;;;;8.52;3.75;;;;;;;12.87;84.62;101385.50;4920605;29;20118;-78
2022/08/29 03:27:14;;;;;;;9.23;4.00;;;;;;;12.79;84.84;101372.31;4934905;29;20134;-78
2022/08/29 03:29:41;;;;;;;6.97;4.03;;;;;;;12.74;85.55;101368.53;4930162;29;20557;-76
2022/08/29 03:32:07;;;;;;;8.48;3.67;;;;;;;12.71;85.43;101368.81;4927436;29;20135;-77
2022/08/29 03:34:34;;;;;;;8.38;3.40;;;;;;;12.63;85.88;101364.31;4918133;29;20138;-77
2022/08/29 03:37:01;;;;;;;10.90;3.92;;;;;;;12.62;86.20;101355.63;4934827;29;20166;-76
2022/08/29 03:39:28;;;;;;;8.82;4.05;;;;;;;12.60;86.43;101362.00;4933069;29;20048;-77
2022/08/29 03:41:56;;;;;;;8.48;4.07;;;;;;;12.55;86.22;101356.38;4934566;29;20179;-77
2022/08/29 03:44:23;;;;;;;7.85;3.83;;;;;;;12.52;86.68;101359.28;4929744;29;20155;-77
2022/08/29 03:46:50;;;;;;;7.63;4.07;;;;;;;12.46;87.43;101342.34;4928980;29;20130;-77
2022/08/29 03:49:16;;;;;;;10.88;4.60;;;;;;;12.49;87.23;101351.72;4917992;29;20044;-77
2022/08/29 03:51:43;;;;;;;7.53;4.20;;;;;;;12.48;87.37;101352.69;4915225;29;20139;-77
2022/08/29 03:54:10;;;;;;;6.90;4.20;;;;;;;12.47;87.47;101351.03;4917499;29;20048;-77
2022/08/29 03:56:37;;;;;;;5.65;3.72;;;;;;;12.42;87.79;101348.03;4927204;29;20127;-77
2022/08/29 03:59:05;;;;;;;7.03;4.00;;;;;;;12.40;88.28;101339.50;4926466;29;20090;-77
2022/08/29 04:01:31;;;;;;;7.43;3.92;;;;;;;12.41;88.26;101341.16;4920427;29;20202;-77
2022/08/29 04:03:58;;;;;;;10.55;4.03;;;;;;;12.38;88.45;101336.19;4915000;29;20091;-76
2022/08/29 04:06:27;;;;;;;7.80;3.80;;;;;;;12.37;88.70;101337.16;4928190;29;20134;-77
2022/08/29 04:08:54;;;;;;;8.52;4.28;;;;;;;12.37;88.61;101345.88;4933275;29;20060;-79
2022/08/29 04:11:23;;;;;;;6.90;3.88;;;;;;;12.35;88.64;101339.94;4933759;29;20138;-77
2022/08/29 04:13:51;;;;;;;7.43;4.40;;;;;;;12.35;89.05;101339.94;4934108;29;20444;-77
2022/08/29 04:16:22;;;;;;;6.63;4.10;;;;;;;12.37;89.07;101351.13;4932579;29;20048;-77
2022/08/29 04:18:49;;;;;;;6.97;4.07;;;;;;;12.38;88.93;101354.56;4934044;29;20138;-77
2022/08/29 04:21:17;;;;;;;7.47;4.50;;;;;;;12.35;88.74;101358.31;4932137;29;20127;-78
2022/08/29 04:23:44;;;;;;;7.70;4.30;;;;;;;12.32;88.66;101357.78;4934158;29;20047;-77
2022/08/29 04:26:16;;;;;;;8.70;4.25;;;;;;;12.31;88.74;101364.84;4932142;29;20052;-78
2022/08/29 04:28:42;;;;;;;6.07;4.30;;;;;;;12.32;88.34;101370.91;4916987;29;20067;-78
2022/08/29 04:31:13;;;;;;;7.60;4.03;;;;;;;12.25;88.20;101368.91;4931510;29;20485;-78
2022/08/29 04:33:41;;;;;;;9.65;4.28;;;;;;;12.19;88.62;101374.75;4915600;29;20564;-79
2022/08/29 04:36:08;;;;;;;7.85;4.18;;;;;;;12.22;88.78;101374.44;4922424;29;20056;-77
2022/08/29 04:38:34;;;;;;;9.23;4.38;;;;;;;12.20;88.80;101378.19;4931351;29;20068;-77
2022/08/29 04:41:05;;;;;;;9.35;4.60;;;;;;;12.17;88.93;101387.19;4931023;29;20066;-77
2022/08/29 04:43:32;;;;;;;6.97;4.18;;;;;;;12.13;89.25;101398.94;4933837;29;20094;-76
2022/08/29 04:45:59;;;;;;;9.05;4.40;;;;;;;12.14;88.76;101386.66;4925522;29;20111;-77
2022/08/29 04:48:26;;;;;;;10.07;4.07;;;;;;;12.12;88.61;101393.84;4933289;29;20083;-77
2022/08/29 04:50:56;;;;;;;8.60;4.53;;;;;;;12.18;89.00;101388.84;4919739;29;20052;-76
2022/08/29 04:53:24;;;;;;;9.38;4.72;;;;;;;12.25;89.85;101389.91;4914328;29;20135;-77
2022/08/29 04:55:57;;;;;;;7.60;4.45;;;;;;;12.73;90.88;101393.94;4924444;29;20083;-78
2022/08/29 04:58:26;;;;;;;7.55;4.20;;;;;;;12.72;88.24;101397.56;4934072;29;20066;-77
2022/08/29 05:00:54;;;;;;;11.40;4.47;;;;;;;12.57;87.17;101383.31;4933934;29;20439;-76
2022/08/29 05:03:21;;;;;;;12.20;4.38;;;;;;;12.69;87.94;101386.53;4935108;29;20051;-77
2022/08/29 05:05:58;;;;;;;8.13;4.40;;;;;;;12.65;87.54;101383.38;4932988;29;20107;-78
2022/08/29 05:08:25;;;;;;;7.10;4.25;;;;;;;12.80;88.08;101389.72;4924980;29;20076;-78
2022/08/29 05:10:52;;;;;;;12.45;4.38;;;;;;;12.80;86.48;101394.97;4929342;29;20051;-77
2022/08/29 05:13:19;;;;;;;8.27;4.72;;;;;;;12.75;86.33;101391.19;4928690;29;20094;-77
2022/08/29 05:15:46;;;;;;;11.60;4.63;;;;;;;12.89;87.89;101395.88;4921490;29;20071;-77
2022/08/29 05:18:13;;;;;;;9.70;4.82;;;;;;;12.85;86.68;101397.16;4934610;29;20142;-77
2022/08/29 05:20:40;;;;;;;10.10;4.53;;;;;;;12.78;86.23;101391.66;4922792;29;20131;-77
2022/08/29 05:23:09;;;;;;;11.52;5.18;;;;;;;12.74;86.96;101403.47;4915297;29;20083;-76
2022/08/29 05:25:36;;;;;;;7.97;4.78;;;;;;;12.83;86.58;101399.91;4924322;29;20090;-77
2022/08/29 05:28:04;;;;;;;7.65;4.72;;;;;;;12.90;86.09;101400.13;4933833;29;20544;-77
2022/08/29 05:30:31;;;;;;;10.80;4.75;;;;;;;13.12;85.45;101399.66;4927763;29;20103;-76
2022/08/29 05:32:58;;;;;;;20.08;5.93;;;;;;;13.03;85.21;101394.50;4933123;29;20048;-77
2022/08/29 05:35:25;;;;;;;25.25;5.53;;;;;;;13.08;85.14;101405.38;4932036;29;20516;-77
2022/08/29 05:37:52;;;;;;;25.58;6.00;;;;;;;13.09;85.26;101405.22;4913813;29;20087;-76
2022/08/29 05:40:20;;;;;;;27.00;6.50;;;;;;;13.16;85.14;101405.47;4920062;29;20432;-77
2022/08/29 05:42:47;;;;;;;10.88;4.95;;;;;;;13.19;85.26;101405.16;4933661;29;20051;-77
2022/08/29 05:45:13;;;;;;;12.05;4.70;;;;;;;13.18;85.53;101406.97;4927820;29;20087;-76
2022/08/29 05:47:40;;;;;;;9.00;4.78;;;;;;;13.33;85.40;101417.72;4933347;29;20147;-76
2022/08/29 05:50:08;;;;;;;9.23;4.50;;;;;;;13.44;85.27;101420.09;4928242;29;20072;-76
2022/08/29 05:52:34;;;;;;;9.75;4.75;;;;;;;13.59;84.82;101417.72;4924805;29;20101;-76
2022/08/29 05:55:01;;;;;;;8.52;4.53;;;;;;;13.81;84.46;101405.81;4928869;29;20274;-76
2022/08/29 05:57:29;;;;;;;9.27;5.07;;;;;;;13.99;83.52;101419.69;4927902;29;20071;-76
2022/08/29 05:59:56;;;;;;;7.82;4.80;;;;;;;14.15;83.07;101413.69;4928030;29;20509;-76
2022/08/29 06:02:24;;;;;;;8.88;5.20;;;;;;;14.36;82.40;101426.38;4929133;29;20059;-76
2022/08/29 06:04:51;;;;;;;10.30;4.78;;;;;;;14.76;81.11;101418.56;4924518;29;20063;-76
2022/08/29 06:07:18;;;;;;;8.95;4.85;;;;;;;15.77;77.58;101434.75;4927281;29;20060;-76
2022/08/29 06:09:46;;;;;;;12.52;4.60;;;;;;;16.86;73.57;101447.88;4925083;29;20083;-77
2022/08/29 06:12:14;;;;;;;10.88;4.85;;;;;;;17.65;71.69;101448.28;4917785;29;20131;-76
2022/08/29 06:14:42;;;;;;;10.15;4.32;;;;;;;18.42;69.17;101438.06;4917532;29;20517;-76
2022/08/29 06:17:09;;;;;;;6.65;4.40;;;;;;;19.02;65.96;101422.69;4933524;29;20480;-77
2022/08/29 06:19:36;;;;;;;7.22;4.55;;;;;;;18.70;66.45;101421.41;4935875;29;20111;-77
2022/08/29 06:22:04;;;;;;;12.07;5.40;;;;;;;18.19;67.58;101430.25;4917187;29;20056;-78
2022/08/29 06:24:31;;;;;;;8.45;4.15;;;;;;;17.74;69.37;101441.91;4923982;29;20556;-77
2022/08/29 06:26:59;;;;;;;8.80;4.90;;;;;;;17.70;69.96;101442.47;4934159;29;20075;-77
2022/08/29 06:29:26;;;;;;;8.10;5.20;;;;;;;17.67;70.12;101440.19;4931424;29;20052;-77
2022/08/29 06:31:56;;;;;;;7.40;4.85;;;;;;;17.65;69.86;101443.00;4936062;29;20197;-77
2022/08/29 06:34:23;;;;;;;8.13;4.75;;;;;;;17.40;70.61;101458.31;4943755;29;20067;-77
2022/08/29 06:36:50;;;;;;;10.90;5.70;;;;;;;17.33;71.22;101453.91;4945242;29;20055;-76
2022/08/29 06:39:18;;;;;;;10.35;5.03;;;;;;;17.06;72.09;101457.94;4947758;29;20432;-76
2022/08/29 06:41:45;;;;;;;12.32;5.22;;;;;;;16.59;73.19;101456.28;4935689;29;20071;-76
2022/08/29 06:44:12;;;;;;;7.93;5.25;;;;;;;16.11;75.00;101457.38;4940333;29;20079;-76
2022/08/29 06:46:41;;;;;;;10.80;5.70;;;;;;;16.05;76.07;101463.38;4952401;29;20071;-76
2022/08/29 06:49:11;;;;;;;13.18;5.88;;;;;;;15.95;76.82;101470.66;4934804;29;20090;-77
2022/08/29 06:51:40;;;;;;;17.15;5.88;;;;;;;15.96;76.59;101470.47;4936012;29;20131;-78
2022/08/29 06:54:08;;;;;;;23.50;7.22;;;;;;;16.26;76.20;101471.50;4936444;29;20138;-77
2022/08/29 06:56:36;;;;;;;14.18;5.60;;;;;;;16.85;73.90;101472.66;4938921;29;20150;-77
2022/08/29 06:59:03;;;;;;;8.73;5.50;;;;;;;17.89;71.60;101481.63;4954938;29;20051;-77
2022/08/29 07:01:30;;;;;;;10.77;5.32;;;;;;;18.40;69.34;101468.41;4935758;29;20052;-76
2022/08/29 07:03:57;;;;;;;11.88;5.28;;;;;;;18.93;67.68;101463.63;4936415;29;20055;-77
2022/08/29 07:06:28;;;;;;;11.52;5.20;;;;;;;19.75;65.52;101458.56;4923096;29;20131;-77
2022/08/29 07:08:55;;;;;;;12.63;5.35;;;;;;;20.43;63.54;101456.78;4925990;29;20082;-79
2022/08/29 07:11:23;;;;;;;8.82;5.00;;;;;;;20.59;62.28;101464.41;4931641;29;20052;-77
2022/08/29 07:13:49;;;;;;;9.20;4.57;;;;;;;20.71;61.92;101465.47;4930872;29;20134;-77
2022/08/29 07:16:17;;;;;;;9.98;5.72;;;;;;;20.68;61.29;101467.69;4943153;29;20586;-78
2022/08/29 07:18:44;;;;;;;8.93;4.95;;;;;;;21.03;61.10;101466.50;4947447;29;20051;-78
2022/08/29 07:21:14;;;;;;;14.23;5.75;;;;;;;21.30;59.47;101469.16;4944339;29;20588;-78
2022/08/29 07:23:43;;;;;;;13.15;5.32;;;;;;;21.50;59.10;101464.63;4935585;29;20139;-78
2022/08/29 07:26:11;;;;;;;13.25;5.38;;;;;;;21.06;59.66;101460.75;4928894;29;20478;-77
2022/08/29 07:28:38;;;;;;;12.55;5.38;;;;;;;21.59;58.38;101465.25;4930915;29;20043;-78
2022/08/29 07:31:09;;;;;;;14.70;5.93;;;;;;;22.05;58.13;101462.47;4933806;29;20059;-78
2022/08/29 07:33:44;;;;;;;9.35;5.60;;;;;;;23.09;54.43;101460.19;4934921;29;20090;-78
2022/08/29 07:36:14;;;;;;;12.88;5.35;;;;;;;23.17;54.64;101451.88;4938844;29;20039;-78
2022/08/29 07:38:42;;;;;;;13.82;5.63;;;;;;;21.85;57.01;101455.31;4930606;29;20075;-78
2022/08/29 07:41:13;;;;;;;11.23;5.20;;;;;;;22.52;57.19;101462.00;4925636;29;20424;-77
2022/08/29 07:43:40;;;;;;;9.70;5.60;;;;;;;22.74;55.28;101450.97;4916103;29;20044;-78
2022/08/29 07:46:08;;;;;;;12.10;6.15;;;;;;;21.78;56.06;101445.72;4919060;29;20079;-78
2022/08/29 07:48:34;;;;;;;13.18;6.18;;;;;;;22.22;56.15;101455.59;4963869;23;20079;-78
2022/08/29 07:51:01;;;;;;;15.48;6.22;;;;;;;22.98;54.32;101446.72;4949706;29;20396;-78
2022/08/29 07:53:28;;;;;;;17.77;6.10;;;;;;;22.24;55.48;101460.72;4943484;29;20119;-81
2022/08/29 07:55:56;;;;;;;12.65;6.40;;;;;;;21.58;57.05;101453.78;4939969;29;20098;-77
2022/08/29 07:58:24;;;;;;;13.10;5.80;;;;;;;22.23;56.21;101457.22;4936880;29;20089;-78
2022/08/29 08:00:53;;;;;;;12.63;6.03;;;;;;;21.52;57.03;101458.09;4939645;29;20138;-78
2022/08/29 08:03:20;;;;;;;13.82;5.35;;;;;;;21.60;56.64;101465.03;4936125;29;20079;-79
2022/08/29 08:05:47;;;;;;;11.45;5.35;;;;;;;21.46;57.21;101461.56;4939869;29;20102;-79
2022/08/29 08:08:13;;;;;;;11.75;4.60;;;;;;;21.82;55.90;101460.25;4939393;29;20059;-81
2022/08/29 08:10:41;;;;;;;9.20;4.45;;;;;;;21.41;57.46;101460.56;4951423;29;20047;-79
2022/08/29 08:13:09;;;;;;;9.60;4.38;;;;;;;21.97;55.69;101460.81;4952356;29;20079;-80
2022/08/29 08:15:37;;;;;;;7.53;4.07;;;;;;;22.37;54.11;101455.31;4929468;29;20402;-79
2022/08/29 08:18:04;;;;;;;9.55;4.35;;;;;;;23.03;53.32;101444.22;4947843;28;20142;-79
2022/08/29 08:20:31;;;;;;;10.55;4.25;;;;;;;23.58;51.66;101445.16;4947264;29;20086;-78
2022/08/29 08:22:58;;;;;;;9.32;4.70;;;;;;;21.96;53.38;101464.50;4949174;28;20115;-79
2022/08/29 08:25:28;;;;;;;7.10;3.97;;;;;;;22.33;53.27;101460.25;4936291;29;20043;-79
2022/08/29 08:27:55;;;;;;;7.72;4.13;;;;;;;22.28;53.65;101459.25;4936127;29;20509;-78
2022/08/29 08:30:23;;;;;;;11.02;4.20;;;;;;;22.93;53.05;101450.06;4939285;29;20056;-82
2022/08/29 08:32:49;;;;;;;8.48;4.43;;;;;;;22.81;52.81;101446.44;4939158;29;20110;-80
2022/08/29 08:35:18;;;;;;;6.93;3.70;;;;;;;22.75;52.22;101464.09;4940167;29;20086;-78
2022/08/29 08:37:46;;;;;;;8.52;3.60;;;;;;;23.01;52.17;101444.44;4938514;28;20056;-77
2022/08/29 08:40:19;;;;;;;7.05;3.78;;;;;;;22.61;52.81;101454.56;4922640;29;20082;-78
2022/08/29 08:42:47;;;;;;;5.75;3.20;;;;;;;22.19;52.17;101464.06;4926733;29;20126;-79
2022/08/29 08:45:16;;;;;;;11.98;3.88;;;;;;;21.71;54.09;101460.91;4938202;29;20245;-79
2022/08/29 08:47:49;;;;;;;6.60;3.42;;;;;;;22.53;53.28;101460.16;4937367;29;20048;-79
2022/08/29 08:50:23;;;;;;;6.80;3.22;;;;;;;22.69;52.17;101448.94;4936293;29;20143;-77
2022/08/29 08:52:53;;;;;;;7.10;3.40;;;;;;;22.99;51.43;101437.69;4933416;29;20132;-80
2022/08/29 08:55:28;;;;;;;8.23;3.60;;;;;;;22.46;52.51;101446.03;4935958;29;20111;-78
2022/08/29 08:58:08;;;;;;;5.80;3.60;;;;;;;21.85;53.72;101455.31;4936928;29;20083;-79
2022/08/29 09:00:42;;;;;;;5.60;4.15;;;;;;;22.79;52.51;101454.66;4939470;29;20060;-80
2022/08/29 09:03:25;;;;;;;9.70;3.67;;;;;;;22.54;52.13;101458.31;4937749;29;20060;-79
2022/08/29 09:06:07;;;;;;;8.88;3.78;;;;;;;22.47;53.54;101450.34;4939783;29;20100;-79
2022/08/29 09:08:46;;;;;;;8.68;4.05;;;;;;;23.71;50.72;101444.19;4935790;29;20052;-77
2022/08/29 09:11:22;;;;;;;11.45;3.53;;;;;;;23.59;49.27;101454.81;4935868;29;20085;-78
2022/08/29 09:13:57;;;;;;;5.70;3.80;;;;;;;23.68;50.69;101448.09;4934763;29;20054;-79
2022/08/29 09:16:28;;;;;;;7.43;3.95;;;;;;;23.26;51.95;101447.09;4935952;29;20052;-78
2022/08/29 09:19:01;;;;;;;7.90;3.95;;;;;;;22.86;53.09;101454.63;4935134;29;20516;-76
2022/08/29 09:21:30;;;;;;;8.48;4.57;;;;;;;23.08;51.17;101447.06;4935929;29;20107;-78
2022/08/29 09:23:59;;;;;;;6.93;3.67;;;;;;;23.12;51.96;101442.91;4936606;29;20419;-78
2022/08/29 09:26:27;;;;;;;8.75;4.07;;;;;;;23.14;51.90;101459.53;4943014;29;20047;-79
2022/08/29 09:28:54;;;;;;;8.10;3.80;;;;;;;23.14;51.36;101452.34;4941932;29;20062;-79
2022/08/29 09:31:25;;;;;;;8.90;3.92;;;;;;;23.26;51.16;101456.94;4943111;29;20150;-79
2022/08/29 09:33:54;;;;;;;9.90;3.90;;;;;;;22.23;52.53;101461.75;4942263;29;20075;-81
2022/08/29 09:36:41;;;;;;;7.32;3.63;;;;;;;22.35;52.84;101462.72;4944118;29;20115;-79
2022/08/29 09:39:18;;;;;;;6.57;3.72;;;;;;;21.64;54.16;101454.78;4939655;29;20059;-80
2022/08/29 09:41:47;;;;;;;9.68;3.97;;;;;;;21.37;54.41;101449.50;4942020;29;20083;-79
2022/08/29 09:44:23;;;;;;;7.43;3.60;;;;;;;21.42;54.28;101451.53;4939033;29;20140;-79
2022/08/29 09:47:06;;;;;;;6.43;3.30;;;;;;;21.82;53.93;101452.25;4942126;29;20055;-80
2022/08/29 09:49:33;;;;;;;;;;;;;;;21.96;53.82;101448.53;4941760;29;20103;-79
2022/08/29 09:52:09;;;;;;;8.57;4.13;;;;;;;22.23;53.36;101440.41;4943234;29;19976;-78
2022/08/29 09:54:36;;;;;;;7.30;3.65;;;;;;;22.48;52.71;101438.66;4940921;29;20056;-79
2022/08/29 09:57:10;;;;;;;12.32;3.70;;;;;;;22.56;53.07;101443.72;4942253;29;20077;-79
2022/08/29 09:59:38;;;;;;;11.18;3.70;;;;;;;22.77;51.96;101437.19;4941872;29;20092;-78
2022/08/29 10:02:14;;;;;;;7.57;3.58;;;;;;;23.06;51.94;101433.13;4941151;29;20048;-79
2022/08/29 10:04:43;;;;;;;14.07;3.88;;;;;;;22.28;52.68;101430.75;4942325;29;20083;-79
2022/08/29 10:07:14;;;;;;;6.78;3.92;;;;;;;22.44;52.54;101446.25;4942519;29;20497;-79
2022/08/29 10:09:41;;;;;;;7.80;4.30;;;;;;;22.50;52.72;101439.25;4941427;29;20075;-79
2022/08/29 10:12:14;;;;;;;8.07;4.10;;;;;;;22.05;54.09;101436.63;4942601;29;20150;-79
2022/08/29 10:14:45;;;;;;;7.07;3.72;;;;;;;23.12;52.19;101421.56;4939606;29;20131;-79
2022/08/29 10:20:08;;;;;;;7.80;4.07;;;;;;;22.93;51.84;101414.53;4940978;29;20095;-79
2022/08/29 10:22:43;;;;;;;9.35;3.70;;;;;;;22.44;52.88;101421.44;4939938;29;20055;-79
2022/08/29 10:25:17;;;;;;;10.98;4.22;;;;;;;22.19;53.42;101426.72;4922644;29;20075;-79
2022/08/29 10:27:50;;;;;;;8.43;4.10;;;;;;;22.51;52.94;101420.38;4925118;29;20107;-79
2022/08/29 10:30:20;;;;;;;6.53;3.85;;;;;;;23.36;52.11;101418.03;4940698;29;20051;-79
2022/08/29 10:33:03;;;;;;;6.65;4.10;;;;;;;22.44;53.02;101424.09;4941100;29;20083;-79
2022/08/29 10:35:36;;;;;;;7.88;3.83;;;;;;;22.54;52.32;101427.13;4941802;29;20107;-77
2022/08/29 10:38:11;;;;;;;12.80;5.47;;;;;;;22.90;52.77;101417.66;4941456;29;20708;-80
2022/08/29 10:40:42;;;;;;;8.38;4.13;;;;;;;23.01;51.47;101414.28;4942781;29;20067;-79
2022/08/29 10:43:27;;;;;;;8.23;4.13;;;;;;;23.44;50.08;101409.72;4943359;29;20126;-79
2022/08/29 10:46:23;;;;;;;7.88;4.15;;;;;;;23.08;50.12;101410.50;4947231;29;20505;-78
2022/08/29 10:49:01;;;;;;;10.35;4.35;;;;;;;22.38;52.22;101414.28;4946450;29;20087;-78
2022/08/29 10:51:40;;;;;;;8.30;4.07;;;;;;;22.72;50.64;101399.69;4946792;29;20075;-78
2022/08/29 10:54:18;;;;;;;6.50;3.80;;;;;;;23.09;49.54;101385.44;4947704;29;20564;-79
2022/08/29 10:56:48;;;;;;;8.68;3.60;;;;;;;23.43;48.94;101383.25;4941770;29;20056;-78
2022/08/29 10:59:25;;;;;;;5.55;3.60;;;;;;;23.54;48.95;101387.06;4942445;29;20052;-79
2022/08/29 11:01:57;;;;;;;11.30;3.67;;;;;;;23.97;48.61;101390.41;4962833;29;20062;-79
2022/08/29 11:04:28;;;;;;;11.60;3.80;;;;;;;23.34;49.62;101388.06;4949209;28;20047;-79
2022/08/29 11:07:03;;;;;;;11.85;4.00;;;;;;;22.86;50.80;101376.41;4940568;29;20067;-77
2022/08/29 11:09:39;;;;;;;8.52;4.53;;;;;;;22.68;51.73;101377.16;4938334;29;20106;-77
2022/08/29 11:12:10;;;;;;;8.60;4.13;;;;;;;23.34;51.18;101374.69;4941235;29;20078;-79
2022/08/29 11:14:42;;;;;;;7.30;4.20;;;;;;;23.70;49.39;101373.88;4940283;29;20048;-80
2022/08/29 11:17:11;;;;;;;;;;;;;;;23.49;49.75;101375.16;4940149;29;20051;-80
2022/08/29 11:20:04;;;;;;;9.75;4.20;;;;;;;22.75;50.89;101373.38;4943071;29;19976;-79
2022/08/29 11:22:37;;;;;;;6.95;3.85;;;;;;;23.48;50.32;101362.84;4956960;29;20051;-81
2022/08/29 11:25:10;;;;;;;8.82;4.28;;;;;;;23.67;50.34;101363.66;4941788;29;20075;-80
2022/08/29 11:27:51;;;;;;;9.57;4.07;;;;;;;23.98;48.79;101357.28;4944662;29;20094;-80
2022/08/29 11:30:23;;;;;;;7.95;3.85;;;;;;;23.73;49.29;101361.94;4939934;29;20087;-79
2022/08/29 11:33:03;;;;;;;9.20;4.68;;;;;;;22.54;50.31;101349.78;4939905;29;20469;-79
2022/08/29 11:35:43;;;;;;;8.90;4.10;;;;;;;22.97;50.00;101349.84;4921128;29;20198;-78
2022/08/29 11:38:35;;;;;;;7.25;4.30;;;;;;;23.47;49.48;101355.84;4931664;29;20083;-79
2022/08/29 11:41:24;;;;;;;7.32;4.00;;;;;;;23.55;48.86;101356.63;4942184;29;20079;-79
2022/08/29 11:43:54;;;;;;;7.25;4.28;;;;;;;23.92;48.29;101358.19;4935932;29;20087;-80